createdAt,value
2018-04-18T00:00:44.617Z,1019.98
2018-04-18T00:01:44.603Z,1019.96
2018-04-18T00:02:44.591Z,1020.00
2018-04-18T00:03:44.577Z,1020.00
2018-04-18T00:04:44.607Z,1019.99
2018-04-18T00:05:44.550Z,1019.99
2018-04-18T00:06:44.536Z,1019.99
2018-04-18T00:07:44.524Z,1020.03
2018-04-18T00:08:44.510Z,1020.04
2018-04-18T00:09:44.497Z,1020.04
2018-04-18T00:10:44.518Z,1020.11
2018-04-18T00:11:44.470Z,1020.05
2018-04-18T00:12:44.459Z,1020.05
2018-04-18T00:13:44.489Z,1020.09
2018-04-18T00:14:44.431Z,1020.01
2018-04-18T00:15:44.418Z,1020.03
2018-04-18T00:16:44.432Z,1020.01
2018-04-18T00:17:44.394Z,1020.01
2018-04-18T00:18:44.376Z,1020.02
2018-04-18T00:19:44.380Z,1020.04
2018-04-18T00:20:44.352Z,1020.05
2018-04-18T00:21:44.338Z,1020.04
2018-04-18T00:22:44.339Z,1020.09
2018-04-18T00:23:44.311Z,1020.12
2018-04-18T00:24:44.300Z,1020.08
2018-04-18T00:25:44.284Z,1020.08
2018-04-18T00:26:44.271Z,1020.05
2018-04-18T00:27:44.261Z,1020.07
2018-04-18T00:28:44.260Z,1020.04
2018-04-18T00:29:44.232Z,1020.05
2018-04-18T00:30:44.217Z,1020.06
2018-04-18T00:31:44.204Z,1020.06
2018-04-18T00:32:44.195Z,1020.07
2018-04-18T00:33:44.178Z,1020.06
2018-04-18T00:34:44.447Z,1020.06
2018-04-18T00:35:44.151Z,1020.07
2018-04-18T00:36:44.138Z,1020.05
2018-04-18T00:37:44.124Z,1020.08
2018-04-18T00:38:44.110Z,1020.01
2018-04-18T00:39:44.097Z,1020.06
2018-04-18T00:40:44.115Z,1020.05
2018-04-18T00:41:44.071Z,1020.04
2018-04-18T00:42:44.061Z,1020.02
2018-04-18T00:43:44.045Z,1020.04
2018-04-18T00:44:44.035Z,1020.00
2018-04-18T00:45:44.018Z,1020.06
2018-04-18T00:46:44.021Z,1020.05
2018-04-18T00:47:43.991Z,1020.05
2018-04-18T00:48:43.979Z,1020.03
2018-04-18T00:49:43.966Z,1020.07
2018-04-18T00:50:43.952Z,1020.07
2018-04-18T00:51:43.937Z,1020.08
2018-04-18T00:52:43.947Z,1020.05
2018-04-18T00:53:43.913Z,1020.08
2018-04-18T00:54:43.899Z,1020.04
2018-04-18T00:55:43.885Z,1020.07
2018-04-18T00:56:43.872Z,1020.08
2018-04-18T00:57:43.859Z,1020.07
2018-04-18T00:58:43.869Z,1020.12
2018-04-18T00:59:43.832Z,1020.11
2018-04-18T01:00:43.818Z,1020.05
2018-04-18T01:01:43.806Z,1020.06
2018-04-18T01:02:43.793Z,1020.06
2018-04-18T01:03:43.778Z,1020.03
2018-04-18T01:04:43.811Z,1020.07
2018-04-18T01:05:43.752Z,1020.07
2018-04-18T01:06:43.738Z,1020.10
2018-04-18T01:07:43.727Z,1020.07
2018-04-18T01:08:43.712Z,1020.10
2018-04-18T01:09:43.698Z,1020.10
2018-04-18T01:10:43.705Z,1020.10
2018-04-18T01:11:43.672Z,1020.10
2018-04-18T01:12:43.659Z,1020.10
2018-04-18T01:13:43.645Z,1020.12
2018-04-18T01:14:43.631Z,1020.13
2018-04-18T01:15:43.623Z,1020.16
2018-04-18T01:16:43.622Z,1020.14
2018-04-18T01:17:43.593Z,1020.13
2018-04-18T01:18:43.578Z,1020.14
2018-04-18T01:19:43.564Z,1020.14
2018-04-18T01:20:43.551Z,1020.14
2018-04-18T01:21:43.539Z,1020.13
2018-04-18T01:22:43.541Z,1020.12
2018-04-18T01:23:43.512Z,1020.13
2018-04-18T01:24:43.497Z,1020.16
2018-04-18T01:25:43.486Z,1020.15
2018-04-18T01:26:43.471Z,1020.17
2018-04-18T01:27:43.457Z,1020.16
2018-04-18T01:28:43.468Z,1020.15
2018-04-18T01:29:43.431Z,1020.18
2018-04-18T01:30:43.416Z,1020.20
2018-04-18T01:31:43.404Z,1020.16
2018-04-18T01:32:43.394Z,1020.17
2018-04-18T01:33:43.378Z,1020.22
2018-04-18T01:34:43.381Z,1020.22
2018-04-18T01:35:43.351Z,1020.22
2018-04-18T01:36:43.337Z,1020.24
2018-04-18T01:37:43.324Z,1020.25
2018-04-18T01:38:43.311Z,1020.23
2018-04-18T01:39:43.298Z,1020.26
2018-04-18T01:40:43.304Z,1020.24
2018-04-18T01:41:43.271Z,1020.26
2018-04-18T01:42:43.257Z,1020.27
2018-04-18T01:43:43.244Z,1020.27
2018-04-18T01:44:43.229Z,1020.28
2018-04-18T01:45:43.217Z,1020.28
2018-04-18T01:46:43.226Z,1020.28
2018-04-18T01:47:43.190Z,1020.27
2018-04-18T01:48:43.179Z,1020.31
2018-04-18T01:49:43.165Z,1020.27
2018-04-18T01:50:43.150Z,1020.31
2018-04-18T01:51:43.137Z,1020.31
2018-04-18T01:52:43.140Z,1020.28
2018-04-18T01:53:43.111Z,1020.28
2018-04-18T01:54:43.097Z,1020.28
2018-04-18T01:55:43.084Z,1020.31
2018-04-18T01:56:43.070Z,1020.28
2018-04-18T01:57:43.059Z,1020.30
2018-04-18T01:58:43.060Z,1020.24
2018-04-18T01:59:43.031Z,1020.29
2018-04-18T02:00:43.017Z,1020.31
2018-04-18T02:01:43.004Z,1020.31
2018-04-18T02:02:42.989Z,1020.34
2018-04-18T02:03:42.977Z,1020.31
2018-04-18T02:04:42.992Z,1020.36
2018-04-18T02:05:42.950Z,1020.35
2018-04-18T02:06:42.935Z,1020.37
2018-04-18T02:07:42.922Z,1020.37
2018-04-18T02:08:42.909Z,1020.38
2018-04-18T02:09:42.899Z,1020.41
2018-04-18T02:10:42.898Z,1020.38
2018-04-18T02:11:42.869Z,1020.39
2018-04-18T02:12:42.854Z,1020.43
2018-04-18T02:13:42.842Z,1020.43
2018-04-18T02:14:42.831Z,1020.42
2018-04-18T02:15:42.817Z,1020.42
2018-04-18T02:16:42.821Z,1020.46
2018-04-18T02:17:42.792Z,1020.43
2018-04-18T02:18:42.774Z,1020.47
2018-04-18T02:19:42.763Z,1020.44
2018-04-18T02:20:42.748Z,1020.46
2018-04-18T02:21:42.735Z,1020.45
2018-04-18T02:22:42.747Z,1020.49
2018-04-18T02:23:42.708Z,1020.52
2018-04-18T02:24:42.696Z,1020.51
2018-04-18T02:25:42.681Z,1020.51
2018-04-18T02:26:42.668Z,1020.52
2018-04-18T02:27:42.654Z,1020.51
2018-04-18T02:28:42.657Z,1020.54
2018-04-18T02:29:42.628Z,1020.53
2018-04-18T02:30:42.623Z,1020.58
2018-04-18T02:31:42.601Z,1020.57
2018-04-18T02:32:42.588Z,1020.57
2018-04-18T02:33:42.574Z,1020.61
2018-04-18T02:34:42.579Z,1020.58
2018-04-18T02:35:42.547Z,1020.60
2018-04-18T02:36:42.533Z,1020.58
2018-04-18T02:37:42.521Z,1020.57
2018-04-18T02:38:42.511Z,1020.57
2018-04-18T02:39:42.490Z,1020.60
2018-04-18T02:40:42.501Z,1020.61
2018-04-18T02:41:42.466Z,1020.59
2018-04-18T02:42:42.453Z,1020.61
2018-04-18T02:43:42.439Z,1020.61
2018-04-18T02:44:42.425Z,1020.60
2018-04-18T02:45:42.414Z,1020.65
2018-04-18T02:46:42.414Z,1020.67
2018-04-18T02:47:42.384Z,1020.61
2018-04-18T02:48:42.372Z,1020.71
2018-04-18T02:49:42.358Z,1020.69
2018-04-18T02:50:42.344Z,1020.70
2018-04-18T02:51:42.330Z,1020.68
2018-04-18T02:52:42.334Z,1020.71
2018-04-18T02:53:42.304Z,1020.70
2018-04-18T02:54:42.290Z,1020.74
2018-04-18T02:55:42.279Z,1020.74
2018-04-18T02:56:42.263Z,1020.74
2018-04-18T02:57:42.253Z,1020.78
2018-04-18T02:58:42.263Z,1020.77
2018-04-18T02:59:42.223Z,1020.79
2018-04-18T03:00:42.208Z,1020.76
2018-04-18T03:01:42.197Z,1020.77
2018-04-18T03:02:42.183Z,1020.82
2018-04-18T03:03:42.169Z,1020.81
2018-04-18T03:04:42.173Z,1020.80
2018-04-18T03:05:42.143Z,1020.82
2018-04-18T03:06:42.127Z,1020.83
2018-04-18T03:07:42.115Z,1020.84
2018-04-18T03:08:42.102Z,1020.84
2018-04-18T03:09:42.090Z,1020.84
2018-04-18T03:10:42.092Z,1020.85
2018-04-18T03:11:42.062Z,1020.88
2018-04-18T03:12:42.048Z,1020.88
2018-04-18T03:13:42.035Z,1020.87
2018-04-18T03:14:42.021Z,1020.85
2018-04-18T03:15:42.007Z,1020.83
2018-04-18T03:16:42.017Z,1020.88
2018-04-18T03:17:41.982Z,1020.89
2018-04-18T03:18:41.968Z,1020.90
2018-04-18T03:19:41.954Z,1020.89
2018-04-18T03:20:41.940Z,1020.92
2018-04-18T03:21:41.930Z,1020.89
2018-04-18T03:22:41.931Z,1020.91
2018-04-18T03:23:41.900Z,1020.91
2018-04-18T03:24:41.887Z,1020.90
2018-04-18T03:25:41.879Z,1020.92
2018-04-18T03:26:41.861Z,1020.93
2018-04-18T03:27:41.847Z,1020.91
2018-04-18T03:28:41.851Z,1020.90
2018-04-18T03:29:41.822Z,1020.94
2018-04-18T03:30:41.809Z,1020.94
2018-04-18T03:31:41.798Z,1020.95
2018-04-18T03:32:41.782Z,1020.95
2018-04-18T03:33:41.769Z,1020.97
2018-04-18T03:34:41.777Z,1021.00
2018-04-18T03:35:41.741Z,1021.00
2018-04-18T03:36:41.728Z,1020.99
2018-04-18T03:37:41.714Z,1021.02
2018-04-18T03:38:41.701Z,1020.98
2018-04-18T03:39:41.688Z,1021.02
2018-04-18T03:40:41.695Z,1021.01
2018-04-18T03:41:41.661Z,1021.03
2018-04-18T03:42:41.651Z,1021.04
2018-04-18T03:43:41.634Z,1021.02
2018-04-18T03:44:41.620Z,1021.03
2018-04-18T03:45:41.607Z,1021.03
2018-04-18T03:46:41.863Z,1021.07
2018-04-18T03:47:41.580Z,1021.09
2018-04-18T03:48:41.570Z,1021.12
2018-04-18T03:49:41.551Z,1021.08
2018-04-18T03:50:41.540Z,1021.10
2018-04-18T03:51:41.526Z,1021.12
2018-04-18T03:52:41.535Z,1021.13
2018-04-18T03:53:41.499Z,1021.13
2018-04-18T03:54:41.485Z,1021.14
2018-04-18T03:55:41.472Z,1021.13
2018-04-18T03:56:41.459Z,1021.15
2018-04-18T03:57:41.444Z,1021.16
2018-04-18T03:58:41.449Z,1021.14
2018-04-18T03:59:41.417Z,1021.16
2018-04-18T04:00:41.403Z,1021.18
2018-04-18T04:01:41.391Z,1021.18
2018-04-18T04:02:41.378Z,1021.21
2018-04-18T04:03:41.367Z,1021.22
2018-04-18T04:04:41.366Z,1021.21
2018-04-18T04:05:41.338Z,1021.21
2018-04-18T04:06:41.327Z,1021.22
2018-04-18T04:07:41.311Z,1021.25
2018-04-18T04:08:41.297Z,1021.26
2018-04-18T04:09:41.286Z,1021.24
2018-04-18T04:10:41.296Z,1021.22
2018-04-18T04:11:41.257Z,1021.27
2018-04-18T04:12:41.243Z,1021.29
2018-04-18T04:13:41.235Z,1021.28
2018-04-18T04:14:41.216Z,1021.25
2018-04-18T04:15:41.202Z,1021.27
2018-04-18T04:16:41.204Z,1021.32
2018-04-18T04:17:41.174Z,1021.31
2018-04-18T04:18:41.163Z,1021.30
2018-04-18T04:19:41.149Z,1021.30
2018-04-18T04:20:41.135Z,1021.29
2018-04-18T04:21:41.125Z,1021.31
2018-04-18T04:22:41.142Z,1021.29
2018-04-18T04:23:41.096Z,1021.30
2018-04-18T04:24:41.081Z,1021.33
2018-04-18T04:25:41.069Z,1021.37
2018-04-18T04:26:41.054Z,1021.32
2018-04-18T04:27:41.041Z,1021.32
2018-04-18T04:28:41.068Z,1021.33
2018-04-18T04:29:41.014Z,1021.32
2018-04-18T04:30:41.001Z,1021.32
2018-04-18T04:31:40.987Z,1021.36
2018-04-18T04:32:40.973Z,1021.33
2018-04-18T04:33:40.960Z,1021.38
2018-04-18T04:34:40.982Z,1021.41
2018-04-18T04:35:40.933Z,1021.39
2018-04-18T04:36:40.919Z,1021.37
2018-04-18T04:37:40.906Z,1021.42
2018-04-18T04:38:40.896Z,1021.40
2018-04-18T04:39:40.880Z,1021.39
2018-04-18T04:40:40.886Z,1021.39
2018-04-18T04:41:40.854Z,1021.38
2018-04-18T04:42:40.840Z,1021.38
2018-04-18T04:43:40.825Z,1021.38
2018-04-18T04:44:40.813Z,1021.36
2018-04-18T04:45:40.800Z,1021.42
2018-04-18T04:46:40.812Z,1021.41
2018-04-18T04:47:40.772Z,1021.43
2018-04-18T04:48:40.759Z,1021.43
2018-04-18T04:49:40.751Z,1021.46
2018-04-18T04:50:40.732Z,1021.45
2018-04-18T04:51:40.717Z,1021.50
2018-04-18T04:52:40.723Z,1021.47
2018-04-18T04:53:40.693Z,1021.48
2018-04-18T04:54:40.676Z,1021.53
2018-04-18T04:55:40.665Z,1021.54
2018-04-18T04:56:40.650Z,1021.56
2018-04-18T04:57:40.638Z,1021.55
2018-04-18T04:58:40.639Z,1021.58
2018-04-18T04:59:40.610Z,1021.56
2018-04-18T05:00:40.599Z,1021.59
2018-04-18T05:01:40.583Z,1021.60
2018-04-18T05:02:40.570Z,1021.57
2018-04-18T05:03:40.557Z,1021.62
2018-04-18T05:04:40.564Z,1021.62
2018-04-18T05:05:40.530Z,1021.62
2018-04-18T05:06:40.516Z,1021.63
2018-04-18T05:07:40.503Z,1021.65
2018-04-18T05:08:40.489Z,1021.66
2018-04-18T05:09:40.476Z,1021.68
2018-04-18T05:10:40.482Z,1021.67
2018-04-18T05:11:40.448Z,1021.67
2018-04-18T05:12:40.434Z,1021.68
2018-04-18T05:13:40.425Z,1021.72
2018-04-18T05:14:40.407Z,1021.70
2018-04-18T05:15:40.395Z,1021.71
2018-04-18T05:16:40.397Z,1021.76
2018-04-18T05:17:40.366Z,1021.76
2018-04-18T05:18:40.353Z,1021.79
2018-04-18T05:19:40.347Z,1021.82
2018-04-18T05:20:40.326Z,1021.80
2018-04-18T05:21:40.314Z,1021.79
2018-04-18T05:22:40.322Z,1021.83
2018-04-18T05:23:40.285Z,1021.81
2018-04-18T05:24:40.278Z,1021.84
2018-04-18T05:25:40.271Z,1021.85
2018-04-18T05:26:40.281Z,1021.89
2018-04-18T05:27:40.232Z,1021.85
2018-04-18T05:28:40.239Z,1021.88
2018-04-18T05:29:40.204Z,1021.87
2018-04-18T05:30:40.190Z,1021.85
2018-04-18T05:31:40.178Z,1021.89
2018-04-18T05:32:40.163Z,1021.92
2018-04-18T05:33:40.150Z,1021.95
2018-04-18T05:34:40.152Z,1021.95
2018-04-18T05:35:40.124Z,1021.94
2018-04-18T05:36:40.111Z,1021.94
2018-04-18T05:37:40.096Z,1021.87
2018-04-18T05:38:40.081Z,1021.95
2018-04-18T05:39:40.069Z,1021.93
2018-04-18T05:40:40.077Z,1021.96
2018-04-18T05:41:40.092Z,1021.96
2018-04-18T05:42:40.027Z,1021.96
2018-04-18T05:43:40.015Z,1021.97
2018-04-18T05:44:40.001Z,1022.02
2018-04-18T05:45:39.987Z,1022.02
2018-04-18T05:46:39.989Z,1022.05
2018-04-18T05:47:39.965Z,1022.06
2018-04-18T05:48:39.960Z,1022.08
2018-04-18T05:49:39.933Z,1022.11
2018-04-18T05:50:39.922Z,1022.15
2018-04-18T05:51:39.906Z,1022.15
2018-04-18T05:52:39.910Z,1022.21
2018-04-18T05:53:39.885Z,1022.20
2018-04-18T05:54:39.870Z,1022.22
2018-04-18T05:55:39.851Z,1022.27
2018-04-18T05:56:39.837Z,1022.28
2018-04-18T05:57:39.892Z,1022.31
2018-04-18T05:58:39.836Z,1022.29
2018-04-18T05:59:39.799Z,1022.30
2018-04-18T06:00:39.784Z,1022.31
2018-04-18T06:01:39.772Z,1022.30
2018-04-18T06:02:39.756Z,1022.31
2018-04-18T06:03:39.745Z,1022.34
2018-04-18T06:04:39.745Z,1022.33
2018-04-18T06:05:39.718Z,1022.33
2018-04-18T06:06:39.703Z,1022.34
2018-04-18T06:07:39.691Z,1022.38
2018-04-18T06:08:39.678Z,1022.36
2018-04-18T06:09:39.668Z,1022.38
2018-04-18T06:10:39.667Z,1022.35
2018-04-18T06:11:39.637Z,1022.35
2018-04-18T06:12:39.623Z,1022.36
2018-04-18T06:13:39.610Z,1022.39
2018-04-18T06:14:39.595Z,1022.36
2018-04-18T06:15:39.584Z,1022.39
2018-04-18T06:16:39.596Z,1022.39
2018-04-18T06:17:39.559Z,1022.40
2018-04-18T06:18:39.545Z,1022.42
2018-04-18T06:19:39.531Z,1022.40
2018-04-18T06:20:39.519Z,1022.42
2018-04-18T06:21:39.505Z,1022.45
2018-04-18T06:22:39.508Z,1022.44
2018-04-18T06:23:39.479Z,1022.45
2018-04-18T06:24:39.465Z,1022.45
2018-04-18T06:25:39.452Z,1022.46
2018-04-18T06:26:39.438Z,1022.45
2018-04-18T06:27:39.427Z,1022.45
2018-04-18T06:28:39.430Z,1022.45
2018-04-18T06:29:39.401Z,1022.47
2018-04-18T06:30:39.383Z,1022.47
2018-04-18T06:31:39.372Z,1022.47
2018-04-18T06:32:39.359Z,1022.49
2018-04-18T06:33:39.366Z,1022.49
2018-04-18T06:34:39.354Z,1022.48
2018-04-18T06:35:39.318Z,1022.50
2018-04-18T06:36:39.305Z,1022.45
2018-04-18T06:37:39.292Z,1022.47
2018-04-18T06:38:39.280Z,1022.49
2018-04-18T06:39:39.267Z,1022.48
2018-04-18T06:40:39.271Z,1022.52
2018-04-18T06:41:39.241Z,1022.53
2018-04-18T06:42:39.226Z,1022.55
2018-04-18T06:43:39.214Z,1022.53
2018-04-18T06:44:39.199Z,1022.49
2018-04-18T06:45:39.187Z,1022.53
2018-04-18T06:46:39.210Z,1022.53
2018-04-18T06:47:39.160Z,1022.49
2018-04-18T06:48:39.147Z,1022.50
2018-04-18T06:49:39.135Z,1022.50
2018-04-18T06:50:39.120Z,1022.50
2018-04-18T06:51:39.105Z,1022.49
2018-04-18T06:52:39.115Z,1022.52
2018-04-18T06:53:39.082Z,1022.54
2018-04-18T06:54:39.067Z,1022.55
2018-04-18T06:55:39.056Z,1022.56
2018-04-18T06:56:39.043Z,1022.56
2018-04-18T06:57:39.044Z,1022.54
2018-04-18T06:58:39.031Z,1022.63
2018-04-18T06:59:39.003Z,1022.59
2018-04-18T07:00:38.993Z,1022.63
2018-04-18T07:01:38.975Z,1022.66
2018-04-18T07:02:38.963Z,1022.61
2018-04-18T07:03:38.950Z,1022.67
2018-04-18T07:04:38.974Z,1022.71
2018-04-18T07:05:38.924Z,1022.67
2018-04-18T07:06:38.909Z,1022.67
2018-04-18T07:07:38.898Z,1022.69
2018-04-18T07:08:38.883Z,1022.67
2018-04-18T07:09:38.871Z,1022.67
2018-04-18T07:10:38.880Z,1022.70
2018-04-18T07:11:38.843Z,1022.70
2018-04-18T07:12:38.831Z,1022.72
2018-04-18T07:13:38.822Z,1022.68
2018-04-18T07:14:38.805Z,1022.66
2018-04-18T07:15:38.791Z,1022.70
2018-04-18T07:16:38.797Z,1022.68
2018-04-18T07:17:38.774Z,1022.64
2018-04-18T07:18:38.746Z,1022.69
2018-04-18T07:19:38.739Z,1022.71
2018-04-18T07:20:38.726Z,1022.69
2018-04-18T07:21:38.723Z,1022.66
2018-04-18T07:22:38.717Z,1022.70
2018-04-18T07:23:38.685Z,1022.70
2018-04-18T07:24:38.674Z,1022.69
2018-04-18T07:25:38.659Z,1022.66
2018-04-18T07:26:38.645Z,1022.70
2018-04-18T07:27:38.655Z,1022.69
2018-04-18T07:28:38.641Z,1022.71
2018-04-18T07:29:38.604Z,1022.73
2018-04-18T07:30:38.591Z,1022.66
2018-04-18T07:31:38.582Z,1022.72
2018-04-18T07:32:38.564Z,1022.68
2018-04-18T07:33:38.553Z,1022.72
2018-04-18T07:34:38.556Z,1022.66
2018-04-18T07:35:38.526Z,1022.66
2018-04-18T07:36:38.513Z,1022.72
2018-04-18T07:37:38.500Z,1022.69
2018-04-18T07:38:38.485Z,1022.67
2018-04-18T07:39:38.472Z,1022.69
2018-04-18T07:40:38.474Z,1022.71
2018-04-18T07:41:38.446Z,1022.64
2018-04-18T07:42:38.430Z,1022.68
2018-04-18T07:43:38.420Z,1022.68
2018-04-18T07:44:38.407Z,1022.68
2018-04-18T07:45:38.392Z,1022.70
2018-04-18T07:46:38.429Z,1022.72
2018-04-18T07:47:38.366Z,1022.68
2018-04-18T07:48:38.352Z,1022.73
2018-04-18T07:49:38.340Z,1022.74
2018-04-18T07:50:38.326Z,1022.74
2018-04-18T07:51:38.314Z,1022.77
2018-04-18T07:52:38.317Z,1022.76
2018-04-18T07:53:38.288Z,1022.77
2018-04-18T07:54:38.273Z,1022.79
2018-04-18T07:55:38.262Z,1022.76
2018-04-18T07:56:38.252Z,1022.75
2018-04-18T07:57:38.232Z,1022.77
2018-04-18T07:58:38.237Z,1022.76
2018-04-18T07:59:38.207Z,1022.76
2018-04-18T08:00:38.198Z,1022.75
2018-04-18T08:01:38.181Z,1022.75
2018-04-18T08:02:38.165Z,1022.74
2018-04-18T08:03:38.154Z,1022.73
2018-04-18T08:04:38.164Z,1022.72
2018-04-18T08:05:38.128Z,1022.71
2018-04-18T08:06:38.113Z,1022.72
2018-04-18T08:07:38.100Z,1022.73
2018-04-18T08:08:38.088Z,1022.70
2018-04-18T08:09:38.079Z,1022.73
2018-04-18T08:10:38.079Z,1022.70
2018-04-18T08:11:38.048Z,1022.75
2018-04-18T08:12:38.036Z,1022.69
2018-04-18T08:13:38.021Z,1022.72
2018-04-18T08:14:38.007Z,1022.74
2018-04-18T08:15:37.997Z,1022.74
2018-04-18T08:16:38.255Z,1022.72
2018-04-18T08:17:37.971Z,1022.73
2018-04-18T08:18:37.957Z,1022.74
2018-04-18T08:19:37.942Z,1022.75
2018-04-18T08:20:37.929Z,1022.75
2018-04-18T08:21:37.916Z,1022.74
2018-04-18T08:22:37.947Z,1022.74
2018-04-18T08:23:37.888Z,1022.79
2018-04-18T08:24:37.891Z,1022.77
2018-04-18T08:25:37.864Z,1022.75
2018-04-18T08:26:37.851Z,1022.77
2018-04-18T08:27:37.836Z,1022.73
2018-04-18T08:28:37.857Z,1022.74
2018-04-18T08:29:37.809Z,1022.77
2018-04-18T08:30:37.794Z,1022.74
2018-04-18T08:31:37.782Z,1022.77
2018-04-18T08:32:37.769Z,1022.78
2018-04-18T08:33:37.757Z,1022.77
2018-04-18T08:34:37.781Z,1022.74
2018-04-18T08:35:37.730Z,1022.74
2018-04-18T08:36:37.716Z,1022.74
2018-04-18T08:37:37.705Z,1022.75
2018-04-18T08:38:37.691Z,1022.75
2018-04-18T08:39:37.675Z,1022.75
2018-04-18T08:40:37.706Z,1022.74
2018-04-18T08:41:37.652Z,1022.72
2018-04-18T08:42:37.636Z,1022.75
2018-04-18T08:43:37.624Z,1022.77
2018-04-18T08:44:37.609Z,1022.79
2018-04-18T08:45:37.596Z,1022.78
2018-04-18T08:46:37.621Z,1022.77
2018-04-18T08:47:37.570Z,1022.79
2018-04-18T08:48:37.558Z,1022.77
2018-04-18T08:49:37.541Z,1022.76
2018-04-18T08:50:37.530Z,1022.73
2018-04-18T08:51:37.515Z,1022.74
2018-04-18T08:52:37.521Z,1022.74
2018-04-18T08:53:37.494Z,1022.75
2018-04-18T08:54:37.475Z,1022.72
2018-04-18T08:55:37.468Z,1022.74
2018-04-18T08:56:37.451Z,1022.73
2018-04-18T08:57:37.439Z,1022.71
2018-04-18T08:58:37.435Z,1022.71
2018-04-18T08:59:37.409Z,1022.70
2018-04-18T09:00:37.397Z,1022.72
2018-04-18T09:01:37.388Z,1022.70
2018-04-18T09:02:37.371Z,1022.70
2018-04-18T09:03:37.379Z,1022.71
2018-04-18T09:04:37.342Z,1022.73
2018-04-18T09:05:37.331Z,1022.71
2018-04-18T09:06:37.318Z,1022.73
2018-04-18T09:07:37.304Z,1022.69
2018-04-18T09:08:37.290Z,1022.73
2018-04-18T09:09:37.294Z,1022.62
2018-04-18T09:10:37.263Z,1022.65
2018-04-18T09:11:37.251Z,1022.63
2018-04-18T09:12:37.242Z,1022.66
2018-04-18T09:13:37.224Z,1022.65
2018-04-18T09:14:37.210Z,1022.65
2018-04-18T09:15:37.209Z,1022.63
2018-04-18T09:16:37.186Z,1022.60
2018-04-18T09:17:37.174Z,1022.59
2018-04-18T09:18:37.159Z,1022.62
2018-04-18T09:19:37.144Z,1022.60
2018-04-18T09:20:37.150Z,1022.59
2018-04-18T09:21:37.119Z,1022.57
2018-04-18T09:22:37.106Z,1022.60
2018-04-18T09:23:37.092Z,1022.57
2018-04-18T09:24:37.078Z,1022.52
2018-04-18T09:25:37.065Z,1022.58
2018-04-18T09:26:37.070Z,1022.54
2018-04-18T09:27:37.041Z,1022.52
2018-04-18T09:28:37.027Z,1022.51
2018-04-18T09:29:37.013Z,1022.52
2018-04-18T09:30:36.998Z,1022.49
2018-04-18T09:31:36.986Z,1022.53
2018-04-18T09:32:36.986Z,1022.51
2018-04-18T09:33:36.960Z,1022.53
2018-04-18T09:34:36.948Z,1022.51
2018-04-18T09:35:36.932Z,1022.52
2018-04-18T09:36:36.919Z,1022.53
2018-04-18T09:37:36.934Z,1022.52
2018-04-18T09:38:36.893Z,1022.51
2018-04-18T09:39:36.881Z,1022.53
2018-04-18T09:40:36.866Z,1022.50
2018-04-18T09:41:36.853Z,1022.48
2018-04-18T09:42:36.840Z,1022.48
2018-04-18T09:43:36.844Z,1022.51
2018-04-18T09:44:36.814Z,1022.53
2018-04-18T09:45:36.804Z,1022.55
2018-04-18T09:46:36.789Z,1022.52
2018-04-18T09:47:36.775Z,1022.51
2018-04-18T09:48:36.768Z,1022.52
2018-04-18T09:49:36.761Z,1022.50
2018-04-18T09:50:36.734Z,1022.48
2018-04-18T09:51:36.723Z,1022.46
2018-04-18T09:52:36.709Z,1022.47
2018-04-18T09:53:36.699Z,1022.47
2018-04-18T09:54:36.704Z,1022.45
2018-04-18T09:55:36.670Z,1022.40
2018-04-18T09:56:36.656Z,1022.41
2018-04-18T09:57:36.641Z,1022.43
2018-04-18T09:58:36.633Z,1022.37
2018-04-18T09:59:36.616Z,1022.41
2018-04-18T10:00:36.621Z,1022.43
2018-04-18T10:01:36.591Z,1022.43
2018-04-18T10:02:36.579Z,1022.41
2018-04-18T10:03:36.564Z,1022.45
2018-04-18T10:04:36.551Z,1022.44
2018-04-18T10:05:36.538Z,1022.45
2018-04-18T10:06:36.546Z,1022.40
2018-04-18T10:07:36.509Z,1022.39
2018-04-18T10:08:36.498Z,1022.37
2018-04-18T10:09:36.486Z,1022.39
2018-04-18T10:10:36.471Z,1022.41
2018-04-18T10:11:36.459Z,1022.36
2018-04-18T10:12:36.462Z,1022.36
2018-04-18T10:13:36.433Z,1022.38
2018-04-18T10:14:36.419Z,1022.37
2018-04-18T10:15:36.405Z,1022.35
2018-04-18T10:16:36.392Z,1022.35
2018-04-18T10:17:36.381Z,1022.33
2018-04-18T10:18:36.382Z,1022.32
2018-04-18T10:19:36.354Z,1022.31
2018-04-18T10:20:36.341Z,1022.27
2018-04-18T10:21:36.328Z,1022.27
2018-04-18T10:22:36.315Z,1022.25
2018-04-18T10:23:36.300Z,1022.26
2018-04-18T10:24:36.331Z,1022.28
2018-04-18T10:25:36.274Z,1022.27
2018-04-18T10:26:36.260Z,1022.24
2018-04-18T10:27:36.247Z,1022.23
2018-04-18T10:28:36.235Z,1022.23
2018-04-18T10:29:36.221Z,1022.22
2018-04-18T10:30:36.242Z,1022.25
2018-04-18T10:31:36.216Z,1022.27
2018-04-18T10:32:36.182Z,1022.29
2018-04-18T10:33:36.171Z,1022.28
2018-04-18T10:34:36.154Z,1022.27
2018-04-18T10:35:36.142Z,1022.28
2018-04-18T10:36:36.165Z,1022.26
2018-04-18T10:37:36.122Z,1022.26
2018-04-18T10:38:36.103Z,1022.21
2018-04-18T10:39:36.090Z,1022.27
2018-04-18T10:40:36.080Z,1022.25
2018-04-18T10:41:36.062Z,1022.21
2018-04-18T10:42:36.088Z,1022.24
2018-04-18T10:43:36.035Z,1022.20
2018-04-18T10:44:36.024Z,1022.22
2018-04-18T10:45:36.018Z,1022.20
2018-04-18T10:46:35.997Z,1022.19
2018-04-18T10:47:35.984Z,1022.16
2018-04-18T10:48:36.010Z,1022.15
2018-04-18T10:49:35.959Z,1022.17
2018-04-18T10:50:35.944Z,1022.14
2018-04-18T10:51:35.931Z,1022.12
2018-04-18T10:52:35.919Z,1022.14
2018-04-18T10:53:35.906Z,1022.11
2018-04-18T10:54:35.910Z,1022.13
2018-04-18T10:55:35.880Z,1022.11
2018-04-18T10:56:35.868Z,1022.13
2018-04-18T10:57:35.857Z,1022.11
2018-04-18T10:58:35.844Z,1022.14
2018-04-18T10:59:35.830Z,1022.11
2018-04-18T11:00:35.841Z,1022.07
2018-04-18T11:01:35.803Z,1022.09
2018-04-18T11:02:35.789Z,1022.05
2018-04-18T11:03:35.776Z,1022.05
2018-04-18T11:04:35.762Z,1022.07
2018-04-18T11:05:35.751Z,1022.05
2018-04-18T11:06:35.789Z,1022.09
2018-04-18T11:07:35.723Z,1022.02
2018-04-18T11:08:35.712Z,1022.02
2018-04-18T11:09:35.697Z,1022.00
2018-04-18T11:10:35.684Z,1022.00
2018-04-18T11:11:35.672Z,1022.00
2018-04-18T11:12:35.678Z,1021.99
2018-04-18T11:13:35.645Z,1021.97
2018-04-18T11:14:35.631Z,1021.95
2018-04-18T11:15:35.619Z,1021.93
2018-04-18T11:16:35.605Z,1021.96
2018-04-18T11:17:35.593Z,1021.96
2018-04-18T11:18:35.601Z,1021.94
2018-04-18T11:19:35.565Z,1021.92
2018-04-18T11:20:35.553Z,1021.90
2018-04-18T11:21:35.539Z,1021.92
2018-04-18T11:22:35.528Z,1021.93
2018-04-18T11:23:35.513Z,1021.94
2018-04-18T11:24:35.518Z,1021.95
2018-04-18T11:25:35.489Z,1021.91
2018-04-18T11:26:35.474Z,1021.96
2018-04-18T11:27:35.462Z,1021.94
2018-04-18T11:28:35.448Z,1021.92
2018-04-18T11:29:35.437Z,1021.92
2018-04-18T11:30:35.437Z,1021.88
2018-04-18T11:31:35.409Z,1021.87
2018-04-18T11:32:35.397Z,1021.85
2018-04-18T11:33:35.382Z,1021.81
2018-04-18T11:34:35.370Z,1021.86
2018-04-18T11:35:35.357Z,1021.82
2018-04-18T11:36:35.369Z,1021.83
2018-04-18T11:37:35.332Z,1021.84
2018-04-18T11:38:35.318Z,1021.77
2018-04-18T11:39:35.305Z,1021.79
2018-04-18T11:40:35.293Z,1021.79
2018-04-18T11:41:35.279Z,1021.81
2018-04-18T11:42:35.282Z,1021.74
2018-04-18T11:43:35.253Z,1021.76
2018-04-18T11:44:35.241Z,1021.74
2018-04-18T11:45:35.231Z,1021.78
2018-04-18T11:46:35.215Z,1021.75
2018-04-18T11:47:35.202Z,1021.81
2018-04-18T11:48:35.204Z,1021.73
2018-04-18T11:49:35.176Z,1021.75
2018-04-18T11:50:35.162Z,1021.75
2018-04-18T11:51:35.148Z,1021.74
2018-04-18T11:52:35.135Z,1021.70
2018-04-18T11:53:35.123Z,1021.67
2018-04-18T11:54:35.131Z,1021.66
2018-04-18T11:55:35.095Z,1021.63
2018-04-18T11:56:35.082Z,1021.70
2018-04-18T11:57:35.114Z,1021.68
2018-04-18T11:58:35.057Z,1021.66
2018-04-18T11:59:35.042Z,1021.65
2018-04-18T12:00:35.046Z,1021.66
2018-04-18T12:01:35.017Z,1021.66
2018-04-18T12:02:35.004Z,1021.63
2018-04-18T12:03:34.992Z,1021.66
2018-04-18T12:04:34.980Z,1021.63
2018-04-18T12:05:34.966Z,1021.64